createdAt,value
2023-01-13T00:00:03.157Z,13.45
2023-01-13T00:02:38.928Z,19.67
2023-01-13T00:05:06.935Z,17.85
2023-01-13T00:07:34.050Z,20.20
2023-01-13T00:10:01.144Z,13.90
2023-01-13T00:12:28.260Z,17.70
2023-01-13T00:14:55.333Z,19.27
2023-01-13T00:17:23.076Z,19.63
2023-01-13T00:19:50.200Z,19.33
2023-01-13T00:22:17.316Z,21.00
2023-01-13T00:24:44.394Z,14.95
2023-01-13T00:27:11.467Z,16.98
2023-01-13T00:29:38.537Z,20.33
2023-01-13T00:32:05.638Z,28.67
2023-01-13T00:34:32.719Z,14.43
2023-01-13T00:36:59.844Z,18.23
2023-01-13T00:39:26.926Z,23.70
2023-01-13T00:42:12.801Z,16.13
2023-01-13T00:47:06.545Z,22.17
2023-01-13T00:49:33.619Z,16.60
2023-01-13T00:52:00.734Z,21.30
2023-01-13T00:54:27.788Z,29.58
2023-01-13T00:56:54.873Z,27.33
2023-01-13T00:59:22.001Z,15.98
2023-01-13T01:01:49.196Z,16.88
2023-01-13T01:04:16.481Z,20.70
2023-01-13T01:06:43.542Z,21.70
2023-01-13T01:09:13.431Z,20.75
2023-01-13T01:11:40.609Z,26.13
2023-01-13T01:14:08.065Z,14.68
2023-01-13T01:16:35.517Z,19.85
2023-01-13T01:19:03.490Z,33.80
2023-01-13T01:21:30.603Z,16.13
2023-01-13T01:23:59.449Z,18.60
2023-01-13T01:26:27.053Z,22.77
2023-01-13T01:28:54.171Z,24.10
2023-01-13T01:31:28.343Z,21.05
2023-01-13T01:33:55.728Z,20.25
2023-01-13T01:36:26.043Z,22.20
2023-01-13T01:38:53.587Z,19.52
2023-01-13T01:41:25.241Z,17.05
2023-01-13T01:44:00.439Z,21.02
2023-01-13T01:46:35.286Z,19.85
2023-01-13T01:49:14.520Z,14.88
2023-01-13T01:51:46.221Z,16.52
2023-01-13T01:54:16.209Z,21.02
2023-01-13T01:56:43.961Z,16.98
2023-01-13T01:59:11.725Z,26.92
2023-01-13T02:01:39.160Z,17.05
2023-01-13T02:04:10.664Z,23.98
2023-01-13T02:06:38.185Z,16.90
2023-01-13T02:09:05.631Z,21.20
2023-01-13T02:11:52.775Z,22.52
2023-01-13T02:14:21.382Z,18.67
2023-01-13T02:17:44.317Z,20.13
2023-01-13T02:20:36.406Z,15.25
2023-01-13T02:23:46.611Z,24.33
2023-01-13T02:26:19.484Z,20.60
2023-01-13T02:29:17.558Z,21.58
2023-01-13T02:31:48.739Z,20.40
2023-01-13T02:34:26.558Z,22.67
2023-01-13T02:36:58.897Z,17.73
2023-01-13T02:39:29.311Z,25.23
2023-01-13T02:42:17.703Z,19.77
2023-01-13T02:44:49.175Z,22.20
2023-01-13T02:47:25.253Z,20.23
2023-01-13T02:49:56.861Z,19.98
2023-01-13T02:52:30.346Z,27.40
2023-01-13T02:54:59.585Z,20.80
2023-01-13T02:57:27.712Z,25.33
2023-01-13T02:59:56.397Z,26.05
2023-01-13T03:02:24.238Z,26.92
2023-01-13T03:04:55.968Z,18.90
2023-01-13T03:07:41.512Z,17.88
2023-01-13T03:10:41.036Z,19.42
2023-01-13T03:13:10.924Z,20.83
2023-01-13T03:15:40.885Z,29.55
2023-01-13T03:18:20.363Z,24.77
2023-01-13T03:20:55.874Z,13.30
2023-01-13T03:23:29.985Z,24.17
2023-01-13T03:26:11.468Z,18.73
2023-01-13T03:28:41.300Z,21.45
2023-01-13T03:31:11.953Z,25.48
2023-01-13T03:33:52.253Z,16.10
2023-01-13T03:36:23.675Z,25.42
2023-01-13T03:38:52.759Z,22.02
2023-01-13T03:41:23.789Z,20.98
2023-01-13T03:44:13.063Z,20.40
2023-01-13T03:46:46.084Z,24.08
2023-01-13T03:49:15.051Z,22.42
2023-01-13T03:51:44.274Z,18.70
2023-01-13T03:54:14.047Z,18.00
2023-01-13T03:56:47.034Z,17.35
2023-01-13T03:59:19.486Z,16.83
2023-01-13T04:02:22.262Z,13.20
2023-01-13T04:04:52.816Z,19.42
2023-01-13T04:07:28.399Z,11.57
2023-01-13T04:09:56.967Z,16.33
2023-01-13T04:12:49.167Z,14.23
2023-01-13T04:15:17.135Z,28.00
2023-01-13T04:17:44.292Z,15.27
2023-01-13T04:20:11.647Z,16.50
2023-01-13T04:22:38.816Z,16.00
2023-01-13T04:25:06.212Z,18.20
2023-01-13T04:27:33.336Z,15.70
2023-01-13T04:30:00.424Z,9.40
2023-01-13T04:32:27.517Z,15.45
2023-01-13T04:34:54.607Z,14.48
2023-01-13T04:37:21.945Z,12.68
2023-01-13T04:39:49.021Z,13.05
2023-01-13T04:42:16.138Z,11.27
2023-01-13T04:44:43.272Z,11.60
2023-01-13T04:47:10.356Z,12.27
2023-01-13T04:49:37.417Z,6.75
2023-01-13T04:52:07.059Z,12.57
2023-01-13T04:54:34.206Z,8.63
2023-01-13T04:57:01.320Z,7.03
2023-01-13T04:59:28.390Z,13.73
2023-01-13T05:01:55.697Z,8.95
2023-01-13T05:04:22.969Z,10.30
2023-01-13T05:06:50.117Z,9.82
2023-01-13T05:09:17.307Z,7.68
2023-01-13T05:12:03.184Z,6.93
2023-01-13T05:17:19.764Z,5.25
2023-01-13T05:19:47.353Z,7.82
2023-01-13T05:22:33.642Z,3.42
2023-01-13T05:25:19.511Z,11.27
2023-01-13T05:27:46.683Z,4.25
2023-01-13T05:30:14.267Z,8.85
2023-01-13T05:32:41.902Z,12.20
2023-01-13T05:35:09.261Z,11.73
2023-01-13T05:37:36.480Z,15.85
2023-01-13T05:40:22.306Z,10.57
2023-01-13T05:43:07.992Z,15.27
2023-01-13T05:45:35.139Z,12.88
2023-01-13T05:48:02.281Z,10.35
2023-01-13T05:50:29.417Z,12.88
2023-01-13T05:52:56.541Z,10.90
2023-01-13T05:55:23.615Z,14.23
2023-01-13T05:57:50.873Z,11.10
2023-01-13T06:00:18.250Z,13.25
2023-01-13T06:02:45.446Z,11.15
2023-01-13T06:05:12.607Z,9.45
2023-01-13T06:07:39.740Z,9.80
2023-01-13T06:10:07.123Z,12.35
2023-01-13T06:12:34.362Z,11.07
2023-01-13T06:15:01.484Z,8.68
2023-01-13T06:17:28.613Z,18.05
2023-01-13T06:19:55.764Z,9.80
2023-01-13T06:22:24.512Z,15.07
2023-01-13T06:24:53.528Z,16.17
2023-01-13T06:27:21.583Z,18.35
2023-01-13T06:29:48.761Z,15.38
2023-01-13T06:32:25.668Z,12.60
2023-01-13T06:34:55.800Z,13.40
2023-01-13T06:37:25.373Z,13.43
2023-01-13T06:39:56.797Z,12.27
2023-01-13T06:42:42.436Z,12.23
2023-01-13T06:45:09.724Z,12.77
2023-01-13T06:47:36.957Z,19.23
2023-01-13T06:50:04.258Z,13.32
2023-01-13T06:52:31.330Z,10.90
2023-01-13T06:54:58.600Z,9.90
2023-01-13T06:57:25.822Z,13.98
2023-01-13T06:59:53.079Z,12.77
2023-01-13T07:02:20.283Z,11.93
2023-01-13T07:04:47.567Z,13.48
2023-01-13T07:07:14.751Z,17.17
2023-01-13T07:09:41.828Z,14.10
2023-01-13T07:12:08.953Z,16.08
2023-01-13T07:14:55.462Z,11.65
2023-01-13T07:17:25.232Z,16.38
2023-01-13T07:19:53.232Z,9.05
2023-01-13T07:22:20.515Z,12.88
2023-01-13T07:24:47.657Z,14.05
2023-01-13T07:27:14.731Z,20.17
2023-01-13T07:29:41.879Z,14.48
2023-01-13T07:32:09.058Z,14.38
2023-01-13T07:34:36.529Z,15.98
2023-01-13T07:37:03.732Z,14.25
2023-01-13T07:39:30.826Z,15.00
2023-01-13T07:42:16.803Z,14.45
2023-01-13T07:44:44.619Z,17.75
2023-01-13T07:47:11.802Z,14.50
2023-01-13T07:49:38.951Z,15.77
2023-01-13T07:52:06.093Z,18.05
2023-01-13T07:54:40.743Z,17.23
2023-01-13T07:57:13.003Z,11.13
2023-01-13T07:59:40.141Z,15.50
2023-01-13T08:02:07.471Z,14.70
2023-01-13T08:04:34.773Z,13.27
2023-01-13T08:07:01.986Z,13.63
2023-01-13T08:09:29.116Z,17.15
2023-01-13T08:12:16.246Z,17.45
2023-01-13T08:14:43.391Z,17.83
2023-01-13T08:17:10.903Z,11.27
2023-01-13T08:19:38.038Z,14.68
2023-01-13T08:22:05.199Z,14.45
2023-01-13T08:24:32.307Z,17.02
2023-01-13T08:26:59.382Z,15.02
2023-01-13T08:29:26.461Z,9.52
2023-01-13T08:31:53.635Z,16.83
2023-01-13T08:34:20.821Z,22.60
2023-01-13T08:36:49.908Z,10.07
2023-01-13T08:39:18.543Z,15.75
2023-01-13T08:41:58.575Z,13.02
2023-01-13T08:44:30.532Z,15.93
2023-01-13T08:46:57.744Z,16.98
2023-01-13T08:49:25.261Z,15.93
2023-01-13T08:51:53.012Z,13.73
2023-01-13T08:54:20.413Z,15.63
2023-01-13T08:56:48.067Z,18.77
2023-01-13T08:59:16.388Z,13.27
2023-01-13T09:01:44.067Z,14.88
2023-01-13T09:04:19.463Z,14.88
2023-01-13T09:06:47.371Z,13.82
2023-01-13T09:09:14.490Z,16.33
2023-01-13T09:12:02.116Z,14.40
2023-01-13T09:14:30.323Z,17.45
2023-01-13T09:16:57.522Z,18.90
2023-01-13T09:19:24.750Z,11.88
2023-01-13T09:21:52.589Z,11.10
2023-01-13T09:24:20.199Z,16.80
2023-01-13T09:26:47.412Z,15.02
2023-01-13T09:29:14.644Z,14.02
2023-01-13T09:31:44.148Z,17.63
2023-01-13T09:34:32.905Z,19.55
2023-01-13T09:37:00.553Z,10.02
2023-01-13T09:39:27.726Z,10.20
2023-01-13T09:42:16.028Z,12.88
2023-01-13T09:44:43.459Z,15.63
2023-01-13T09:47:23.401Z,10.85
2023-01-13T09:49:50.658Z,17.77
2023-01-13T09:52:26.841Z,18.15
2023-01-13T09:55:14.979Z,12.63
2023-01-13T09:57:42.195Z,13.75
2023-01-13T10:00:21.395Z,18.35
2023-01-13T10:03:04.604Z,13.55
2023-01-13T10:05:39.391Z,14.68
2023-01-13T10:08:12.796Z,12.88
2023-01-13T10:10:50.839Z,15.68
2023-01-13T10:13:19.975Z,14.52
2023-01-13T10:15:57.079Z,13.45
2023-01-13T10:18:27.948Z,11.57
2023-01-13T10:21:32.927Z,16.52
2023-01-13T10:27:01.075Z,16.50
2023-01-13T10:29:29.038Z,17.75
2023-01-13T10:31:57.158Z,17.88
2023-01-13T10:34:24.758Z,14.48
2023-01-13T10:37:00.392Z,15.27
2023-01-13T10:39:27.875Z,17.02
2023-01-13T10:42:02.913Z,14.32
2023-01-13T10:44:30.173Z,17.42
2023-01-13T10:46:58.358Z,17.45
2023-01-13T10:49:25.793Z,17.38
2023-01-13T10:51:52.942Z,16.73
2023-01-13T10:54:22.398Z,18.15
2023-01-13T10:56:49.849Z,8.70
2023-01-13T10:59:27.163Z,13.43
2023-01-13T11:02:26.280Z,18.58
2023-01-13T11:04:53.982Z,17.48
2023-01-13T11:07:32.372Z,11.30
2023-01-13T11:10:17.790Z,13.65
2023-01-13T11:12:50.827Z,11.32
2023-01-13T11:15:21.014Z,17.13
2023-01-13T11:17:51.773Z,11.55
2023-01-13T11:20:22.310Z,11.73
2023-01-13T11:22:55.776Z,12.40
2023-01-13T11:25:41.380Z,8.80
2023-01-13T11:28:20.734Z,9.70
2023-01-13T11:30:53.731Z,11.02
2023-01-13T11:33:37.532Z,13.57
2023-01-13T11:36:20.528Z,9.32
2023-01-13T11:38:59.637Z,15.18
2023-01-13T11:41:32.941Z,17.27
2023-01-13T11:44:06.991Z,17.58
2023-01-13T11:46:34.327Z,14.23
2023-01-13T11:49:01.681Z,15.60
2023-01-13T11:51:33.412Z,9.93
2023-01-13T11:54:00.520Z,6.15
2023-01-13T11:56:39.349Z,14.32
2023-01-13T11:59:09.704Z,12.88
2023-01-13T12:01:52.487Z,10.25
2023-01-13T12:04:28.897Z,13.68
2023-01-13T12:07:02.178Z,12.02
2023-01-13T12:09:32.490Z,12.00
2023-01-13T12:12:22.123Z,12.68
2023-01-13T12:14:58.339Z,17.38
2023-01-13T12:17:28.498Z,10.70
2023-01-13T12:19:55.964Z,7.93
2023-01-13T12:22:31.081Z,11.65
2023-01-13T12:25:04.933Z,14.27
2023-01-13T12:27:41.231Z,16.38
2023-01-13T12:30:29.342Z,14.77
2023-01-13T12:32:59.904Z,10.73
2023-01-13T12:35:50.405Z,11.55
2023-01-13T12:38:21.229Z,10.43
2023-01-13T12:40:48.300Z,11.68
2023-01-13T12:43:38.551Z,15.18
2023-01-13T12:46:25.508Z,15.27
2023-01-13T12:48:56.965Z,9.82
2023-01-13T12:51:26.182Z,10.75
2023-01-13T12:53:54.602Z,9.63
2023-01-13T12:56:21.707Z,13.80
2023-01-13T12:58:48.973Z,13.13
2023-01-13T13:01:16.644Z,13.40
2023-01-13T13:04:03.855Z,10.35
2023-01-13T13:06:31.904Z,10.43
2023-01-13T13:09:20.050Z,12.30
2023-01-13T13:12:03.934Z,9.95
2023-01-13T13:14:40.053Z,11.15
2023-01-13T13:17:28.586Z,11.23
2023-01-13T13:19:56.686Z,9.70
2023-01-13T13:22:26.842Z,10.93
2023-01-13T13:24:57.603Z,10.50
2023-01-13T13:27:24.774Z,12.43
2023-01-13T13:30:10.501Z,9.18
2023-01-13T13:32:44.498Z,6.85
2023-01-13T13:35:30.033Z,10.23
2023-01-13T13:38:34.636Z,11.48
2023-01-13T13:41:24.591Z,8.88
2023-01-13T13:44:10.529Z,11.60
2023-01-13T13:46:48.964Z,8.88
2023-01-13T13:49:20.299Z,6.00
2023-01-13T13:51:52.884Z,5.95
2023-01-13T13:54:21.245Z,11.98
2023-01-13T13:56:50.244Z,10.65
2023-01-13T13:59:20.124Z,6.78
2023-01-13T14:01:51.149Z,12.27
2023-01-13T14:04:23.132Z,10.63
2023-01-13T14:06:57.892Z,12.70
2023-01-13T14:09:31.352Z,8.25
2023-01-13T14:12:09.561Z,6.22
2023-01-13T14:14:36.696Z,10.80
2023-01-13T14:17:04.895Z,9.45
2023-01-13T14:19:36.025Z,10.93
2023-01-13T14:22:03.945Z,14.77
2023-01-13T14:24:32.284Z,8.43
2023-01-13T14:27:14.663Z,9.65
2023-01-13T14:29:41.933Z,6.35
2023-01-13T14:32:09.370Z,13.65
2023-01-13T14:34:37.757Z,13.80
2023-01-13T14:37:22.039Z,13.43
2023-01-13T14:39:49.187Z,9.88
2023-01-13T14:42:17.079Z,10.40
2023-01-13T14:44:51.366Z,12.43
2023-01-13T14:47:27.779Z,15.23
2023-01-13T14:50:17.108Z,8.57
2023-01-13T14:52:49.572Z,13.65
2023-01-13T14:55:29.235Z,13.77
2023-01-13T14:58:24.241Z,8.43
2023-01-13T15:00:52.165Z,12.45
2023-01-13T15:03:20.512Z,11.82
2023-01-13T15:05:49.433Z,9.23
2023-01-13T15:08:17.257Z,8.45
2023-01-13T15:11:00.876Z,19.50
2023-01-13T15:13:40.449Z,14.27
2023-01-13T15:16:15.401Z,10.43
2023-01-13T15:18:42.648Z,6.47
2023-01-13T15:21:10.371Z,8.68
2023-01-13T15:23:39.909Z,9.85
2023-01-13T15:26:15.989Z,8.90
2023-01-13T15:28:43.141Z,11.05
2023-01-13T15:31:10.286Z,9.30
2023-01-13T15:33:37.384Z,9.85
2023-01-13T15:36:04.945Z,10.93
2023-01-13T15:38:32.038Z,11.13
2023-01-13T15:40:59.263Z,12.85
2023-01-13T15:43:45.366Z,13.05
2023-01-13T15:46:31.439Z,12.82
2023-01-13T15:49:00.536Z,9.30
2023-01-13T15:51:27.684Z,9.05
2023-01-13T15:53:54.871Z,11.10
2023-01-13T15:56:28.825Z,9.27
2023-01-13T15:58:56.287Z,6.53
2023-01-13T16:01:23.691Z,8.75
2023-01-13T16:03:52.154Z,9.60
2023-01-13T16:06:25.095Z,16.75
2023-01-13T16:08:52.246Z,11.25
2023-01-13T16:11:19.348Z,11.77
2023-01-13T16:13:46.567Z,16.92
2023-01-13T16:16:21.631Z,11.95
2023-01-13T16:18:49.583Z,10.32
2023-01-13T16:21:16.776Z,12.43
2023-01-13T16:23:43.913Z,10.75
2023-01-13T16:26:17.195Z,12.38
2023-01-13T16:28:44.329Z,10.07
2023-01-13T16:31:32.052Z,10.18
2023-01-13T16:34:01.016Z,11.45
2023-01-13T16:36:29.376Z,8.98
2023-01-13T16:38:57.244Z,13.90
2023-01-13T16:41:25.023Z,6.45
2023-01-13T16:43:52.339Z,10.52
2023-01-13T16:46:26.841Z,11.40
2023-01-13T16:48:55.298Z,11.13
2023-01-13T16:51:23.181Z,10.40
2023-01-13T16:53:50.963Z,14.98
2023-01-13T16:56:20.930Z,8.65
2023-01-13T16:58:48.185Z,14.38
2023-01-13T17:01:19.658Z,7.80
2023-01-13T17:03:49.239Z,8.77
2023-01-13T17:06:17.444Z,7.72
2023-01-13T17:08:44.821Z,10.02
2023-01-13T17:11:13.066Z,10.82
2023-01-13T17:13:41.254Z,10.48
2023-01-13T17:16:16.264Z,11.10
2023-01-13T17:18:43.417Z,10.90
2023-01-13T17:21:10.534Z,11.35
2023-01-13T17:23:37.713Z,6.18
2023-01-13T17:26:04.960Z,7.47
2023-01-13T17:28:32.091Z,9.63
2023-01-13T17:30:59.205Z,4.82
2023-01-13T17:33:26.357Z,6.32
2023-01-13T17:35:53.528Z,7.78
2023-01-13T17:38:20.770Z,4.57
2023-01-13T17:40:47.880Z,4.25
2023-01-13T17:43:15.028Z,4.63
2023-01-13T17:45:42.348Z,3.63
2023-01-13T17:48:09.471Z,5.63
2023-01-13T17:50:36.598Z,4.15
2023-01-13T17:53:03.770Z,4.38
2023-01-13T17:55:30.952Z,3.20
2023-01-13T17:57:58.266Z,5.85
2023-01-13T18:00:25.459Z,5.60
2023-01-13T18:02:54.445Z,6.65
2023-01-13T18:05:21.751Z,6.70
2023-01-13T18:07:48.963Z,9.25
2023-01-13T18:10:16.142Z,4.95
2023-01-13T18:12:43.234Z,6.63
2023-01-13T18:15:10.615Z,8.18
2023-01-13T18:17:37.781Z,4.10
2023-01-13T18:20:23.608Z,7.38
2023-01-13T18:23:09.262Z,5.25
2023-01-13T18:25:55.189Z,7.78
2023-01-13T18:30:49.161Z,10.20
2023-01-13T18:33:16.321Z,9.38
2023-01-13T18:35:43.403Z,6.45
2023-01-13T18:38:14.332Z,9.68
2023-01-13T18:40:43.991Z,9.98
2023-01-13T18:43:11.121Z,10.60
2023-01-13T18:45:38.314Z,9.30
2023-01-13T18:48:05.847Z,11.18
2023-01-13T18:50:34.748Z,6.95
2023-01-13T18:53:02.391Z,6.70
2023-01-13T18:55:29.704Z,8.48
2023-01-13T18:57:57.098Z,7.22
2023-01-13T19:00:25.201Z,9.80
2023-01-13T19:05:34.152Z,9.98
2023-01-13T19:08:01.669Z,7.45
2023-01-13T19:10:32.040Z,10.27
2023-01-13T19:12:59.298Z,9.02
2023-01-13T19:15:26.399Z,8.50
2023-01-13T19:17:53.486Z,10.13
2023-01-13T19:20:20.836Z,14.57
2023-01-13T19:22:53.834Z,12.13
2023-01-13T19:25:20.927Z,25.55
2023-01-13T19:27:48.112Z,11.45
2023-01-13T19:30:15.332Z,10.80
2023-01-13T19:32:42.410Z,12.88
2023-01-13T19:35:09.642Z,11.38
2023-01-13T19:37:36.878Z,10.25
2023-01-13T19:40:09.148Z,9.05
2023-01-13T19:42:55.010Z,11.27
2023-01-13T19:45:29.571Z,8.40
2023-01-13T19:47:57.825Z,11.63
2023-01-13T19:50:25.309Z,10.18
2023-01-13T19:52:52.412Z,8.00
2023-01-13T19:55:19.786Z,12.32
2023-01-13T19:57:46.992Z,12.13
2023-01-13T20:00:18.208Z,10.13
2023-01-13T20:02:49.067Z,10.02
2023-01-13T20:05:22.200Z,9.15
2023-01-13T20:07:50.146Z,5.22
2023-01-13T20:10:17.970Z,7.35
2023-01-13T20:12:45.138Z,8.32
2023-01-13T20:15:12.334Z,9.45
2023-01-13T20:17:41.299Z,8.88
2023-01-13T20:20:09.163Z,8.50
2023-01-13T20:22:37.363Z,10.98
2023-01-13T20:25:04.624Z,10.27
2023-01-13T20:27:31.784Z,9.27
2023-01-13T20:29:59.066Z,4.82
2023-01-13T20:32:26.205Z,23.40
2023-01-13T20:34:53.321Z,13.70
2023-01-13T20:37:20.424Z,13.38
2023-01-13T20:39:48.201Z,9.88
2023-01-13T20:42:30.475Z,11.43
2023-01-13T20:44:59.567Z,10.38
2023-01-13T20:47:27.316Z,13.73
2023-01-13T20:49:54.627Z,18.15
2023-01-13T20:52:21.777Z,12.93
2023-01-13T20:54:48.890Z,21.00
2023-01-13T20:57:16.069Z,6.13
2023-01-13T20:59:43.185Z,7.72
2023-01-13T21:02:15.425Z,10.73
2023-01-13T21:04:42.602Z,12.00
2023-01-13T21:07:09.943Z,7.95
2023-01-13T21:09:37.126Z,7.28
2023-01-13T21:12:23.211Z,10.32
2023-01-13T21:15:09.138Z,11.43
2023-01-13T21:20:21.499Z,7.93
2023-01-13T21:22:49.478Z,9.10
2023-01-13T21:25:17.100Z,10.05
2023-01-13T21:27:44.391Z,14.55
2023-01-13T21:30:14.768Z,10.32
2023-01-13T21:32:42.622Z,8.70
2023-01-13T21:35:10.284Z,11.90
2023-01-13T21:37:37.954Z,8.73
2023-01-13T21:40:06.424Z,14.52
2023-01-13T21:42:52.380Z,12.98
2023-01-13T21:48:05.171Z,10.55
2023-01-13T21:50:32.390Z,8.57
2023-01-13T21:52:59.660Z,11.15
2023-01-13T21:55:28.611Z,7.95
2023-01-13T21:58:00.925Z,12.98
2023-01-13T22:00:29.619Z,7.60
2023-01-13T22:02:57.551Z,16.92
2023-01-13T22:05:25.318Z,8.63
2023-01-13T22:07:52.809Z,7.13
2023-01-13T22:10:21.095Z,15.60
2023-01-13T22:12:48.538Z,18.90
2023-01-13T22:15:17.048Z,13.70
2023-01-13T22:17:45.608Z,10.50
2023-01-13T22:20:13.515Z,12.48
2023-01-13T22:22:40.810Z,11.95
2023-01-13T22:25:08.943Z,12.82
2023-01-13T22:27:44.636Z,11.85
2023-01-13T22:30:13.792Z,10.55
2023-01-13T22:32:41.680Z,14.25
2023-01-13T22:35:10.343Z,12.77
2023-01-13T22:37:37.849Z,11.43
2023-01-13T22:40:06.078Z,8.50
2023-01-13T22:42:36.625Z,11.88
2023-01-13T22:45:03.839Z,8.77
2023-01-13T22:47:31.320Z,9.77
2023-01-13T22:49:58.443Z,7.60
2023-01-13T22:52:27.373Z,9.35
2023-01-13T22:54:54.923Z,10.07
2023-01-13T22:57:24.031Z,9.13
2023-01-13T22:59:51.282Z,13.85
2023-01-13T23:02:18.480Z,9.95
2023-01-13T23:04:45.665Z,12.38
2023-01-13T23:07:12.878Z,9.02
2023-01-13T23:09:40.053Z,10.32
2023-01-13T23:12:07.211Z,6.03
2023-01-13T23:14:34.398Z,13.27
2023-01-13T23:17:01.576Z,15.40
2023-01-13T23:19:28.820Z,11.10
2023-01-13T23:21:55.922Z,7.40
2023-01-13T23:24:25.848Z,7.13
2023-01-13T23:26:53.053Z,8.18
2023-01-13T23:29:20.250Z,7.82
2023-01-13T23:31:47.707Z,11.23
2023-01-13T23:34:14.878Z,11.88
2023-01-13T23:36:43.316Z,9.88
2023-01-13T23:39:10.514Z,10.85
2023-01-13T23:41:37.643Z,13.63
2023-01-13T23:44:04.784Z,14.55
2023-01-13T23:46:33.931Z,14.65
2023-01-13T23:49:02.073Z,8.73
2023-01-13T23:51:30.076Z,12.40
2023-01-13T23:53:57.476Z,11.02
2023-01-13T23:56:25.659Z,10.23
2023-01-13T23:58:52.784Z,16.40
